createdAt,value
2023-04-17T00:01:09.686Z,17.20
2023-04-17T00:03:37.841Z,15.10
2023-04-17T00:06:05.303Z,16.80
2023-04-17T00:08:33.892Z,15.50
2023-04-17T00:11:07.705Z,17.77
2023-04-17T00:13:35.796Z,15.17
2023-04-17T00:16:02.862Z,16.40
2023-04-17T00:18:29.739Z,16.07
2023-04-17T00:20:56.608Z,16.20
2023-04-17T00:23:23.421Z,17.73
2023-04-17T00:25:50.154Z,11.87
2023-04-17T00:28:16.825Z,13.43
2023-04-17T00:30:43.579Z,12.93
2023-04-17T00:33:10.319Z,16.53
2023-04-17T00:35:36.979Z,16.00
2023-04-17T00:38:03.960Z,16.77
2023-04-17T00:40:31.201Z,9.90
2023-04-17T00:43:01.750Z,12.83
2023-04-17T00:45:29.637Z,11.63
2023-04-17T00:47:58.523Z,10.87
2023-04-17T00:50:27.333Z,11.90
2023-04-17T00:52:54.958Z,14.50
2023-04-17T00:55:21.858Z,10.77
2023-04-17T00:57:51.920Z,12.73
2023-04-17T01:00:18.750Z,11.30
2023-04-17T01:02:46.814Z,11.50
2023-04-17T01:05:14.274Z,9.33
2023-04-17T01:07:41.944Z,10.53
2023-04-17T01:10:09.409Z,10.20
2023-04-17T01:12:36.558Z,9.43
2023-04-17T01:15:03.880Z,12.17
2023-04-17T01:17:31.578Z,11.97
2023-04-17T01:19:58.447Z,8.73
2023-04-17T01:22:25.674Z,10.10
2023-04-17T01:24:56.687Z,10.57
2023-04-17T01:27:25.801Z,8.80
2023-04-17T01:29:52.545Z,9.83
2023-04-17T01:32:19.710Z,10.93
2023-04-17T01:34:46.783Z,10.17
2023-04-17T01:37:13.504Z,12.37
2023-04-17T01:39:40.929Z,8.77
2023-04-17T01:42:07.741Z,10.43
2023-04-17T01:44:34.522Z,9.43
2023-04-17T01:47:01.181Z,10.23
2023-04-17T01:49:28.085Z,10.63
2023-04-17T01:51:54.758Z,8.77
2023-04-17T01:54:22.292Z,11.13
2023-04-17T01:56:48.940Z,10.70
2023-04-17T01:59:15.891Z,9.77
2023-04-17T02:01:42.670Z,10.40
2023-04-17T02:04:09.554Z,12.67
2023-04-17T02:06:36.453Z,13.00
2023-04-17T02:09:03.886Z,12.63
2023-04-17T02:11:30.607Z,12.13
2023-04-17T02:13:57.318Z,12.00
2023-04-17T02:16:24.162Z,11.00
2023-04-17T02:18:51.710Z,12.03
2023-04-17T02:21:18.656Z,13.50
2023-04-17T02:23:45.433Z,10.33
2023-04-17T02:26:12.367Z,14.17
2023-04-17T02:28:39.415Z,12.03
2023-04-17T02:31:08.421Z,12.80
2023-04-17T02:33:36.683Z,11.57
2023-04-17T02:36:04.524Z,14.70
2023-04-17T02:38:37.797Z,14.53
2023-04-17T02:41:05.362Z,13.70
2023-04-17T02:43:32.913Z,14.97
2023-04-17T02:45:59.707Z,17.13
2023-04-17T02:48:27.239Z,15.37
2023-04-17T02:50:53.981Z,17.97
2023-04-17T02:53:21.351Z,18.47
2023-04-17T02:55:48.922Z,16.07
2023-04-17T02:58:18.008Z,16.90
2023-04-17T03:00:44.682Z,19.77
2023-04-17T03:03:15.299Z,20.93
2023-04-17T03:05:42.150Z,19.23
2023-04-17T03:08:09.434Z,17.53
2023-04-17T03:10:44.177Z,18.03
2023-04-17T03:13:10.905Z,20.03
2023-04-17T03:15:37.572Z,16.43
2023-04-17T03:18:04.494Z,16.77
2023-04-17T03:20:31.166Z,18.87
2023-04-17T03:22:57.983Z,19.03
2023-04-17T03:25:24.656Z,19.50
2023-04-17T03:27:56.262Z,17.80
2023-04-17T03:30:28.222Z,18.00
2023-04-17T03:32:57.557Z,19.00
2023-04-17T03:35:24.874Z,15.93
2023-04-17T03:37:51.594Z,17.90
2023-04-17T03:40:18.661Z,17.60
2023-04-17T03:42:46.725Z,16.00
2023-04-17T03:45:13.462Z,18.50
2023-04-17T03:47:40.493Z,17.53
2023-04-17T03:50:08.036Z,17.70
2023-04-17T03:52:39.817Z,19.43
2023-04-17T03:55:07.314Z,18.30
2023-04-17T03:57:34.217Z,16.33
2023-04-17T04:00:00.949Z,17.20
2023-04-17T04:02:34.445Z,18.03
2023-04-17T04:05:01.343Z,20.33
2023-04-17T04:07:28.089Z,20.63
2023-04-17T04:09:55.856Z,19.87
2023-04-17T04:12:23.117Z,16.23
2023-04-17T04:14:49.871Z,18.27
2023-04-17T04:17:16.828Z,16.73
2023-04-17T04:19:43.809Z,17.20
2023-04-17T04:22:13.526Z,19.10
2023-04-17T04:24:47.340Z,16.80
2023-04-17T04:27:18.297Z,19.63
2023-04-17T04:29:48.716Z,17.87
2023-04-17T04:32:17.131Z,17.90
2023-04-17T04:34:46.173Z,18.47
2023-04-17T04:37:16.129Z,18.80
2023-04-17T04:39:47.120Z,16.57
2023-04-17T04:42:21.848Z,17.37
2023-04-17T04:44:56.962Z,18.87
2023-04-17T04:47:27.281Z,17.87
2023-04-17T04:49:54.479Z,18.73
2023-04-17T04:52:22.038Z,18.45
2023-04-17T04:54:51.441Z,15.20
2023-04-17T04:57:18.510Z,17.43
2023-04-17T04:59:47.326Z,17.33
2023-04-17T05:02:26.206Z,18.60
2023-04-17T05:04:53.471Z,19.13
2023-04-17T05:07:20.661Z,18.87
2023-04-17T05:09:47.435Z,15.83
2023-04-17T05:12:16.161Z,17.77
2023-04-17T05:14:44.013Z,15.57
2023-04-17T05:17:10.885Z,17.10
2023-04-17T05:19:38.508Z,16.93
2023-04-17T05:22:08.477Z,18.13
2023-04-17T05:24:41.662Z,16.93
2023-04-17T05:27:09.511Z,17.27
2023-04-17T05:29:37.530Z,18.77
2023-04-17T05:32:04.419Z,18.67
2023-04-17T05:34:49.290Z,16.23
2023-04-17T05:37:18.998Z,17.47
2023-04-17T05:39:45.801Z,16.93
2023-04-17T05:42:12.458Z,18.47
2023-04-17T05:44:39.990Z,16.00
2023-04-17T05:47:07.650Z,15.43
2023-04-17T05:49:34.367Z,17.50
2023-04-17T05:52:01.109Z,16.27
2023-04-17T05:54:30.151Z,16.13
2023-04-17T05:56:57.797Z,18.37
2023-04-17T05:59:25.211Z,16.93
2023-04-17T06:01:52.422Z,15.57
2023-04-17T06:04:21.863Z,16.90
2023-04-17T06:06:49.903Z,16.00
2023-04-17T06:09:17.057Z,14.07
2023-04-17T06:11:43.726Z,17.23
2023-04-17T06:14:10.914Z,16.20
2023-04-17T06:16:38.556Z,16.10
2023-04-17T06:19:05.481Z,19.00
2023-04-17T06:21:32.466Z,13.37
2023-04-17T06:24:00.750Z,16.00
2023-04-17T06:26:27.467Z,17.53
2023-04-17T06:28:54.771Z,16.03
2023-04-17T06:31:23.206Z,14.50
2023-04-17T06:33:50.830Z,15.70
2023-04-17T06:36:20.299Z,15.83
2023-04-17T06:38:49.000Z,16.60
2023-04-17T06:41:17.399Z,16.33
2023-04-17T06:43:44.442Z,13.73
2023-04-17T06:46:13.641Z,14.87
2023-04-17T06:48:40.345Z,16.93
2023-04-17T06:51:07.090Z,17.20
2023-04-17T06:53:33.902Z,16.23
2023-04-17T06:56:00.566Z,18.53
2023-04-17T06:58:27.283Z,17.37
2023-04-17T07:00:54.111Z,15.00
2023-04-17T07:03:20.924Z,16.10
2023-04-17T07:05:48.803Z,16.20
2023-04-17T07:08:15.872Z,16.37
2023-04-17T07:10:42.566Z,16.07
2023-04-17T07:13:09.308Z,16.13
2023-04-17T07:15:36.030Z,18.80
2023-04-17T07:18:02.781Z,16.97
2023-04-17T07:20:29.516Z,15.33
2023-04-17T07:22:57.294Z,17.67
2023-04-17T07:25:24.122Z,19.80
2023-04-17T07:27:51.171Z,19.30
2023-04-17T07:30:17.842Z,20.83
2023-04-17T07:32:44.620Z,17.03
2023-04-17T07:35:11.472Z,15.10
2023-04-17T07:37:38.143Z,16.50
2023-04-17T07:40:10.104Z,19.40
2023-04-17T07:42:37.052Z,17.67
2023-04-17T07:45:05.162Z,17.90
2023-04-17T07:47:32.027Z,16.17
2023-04-17T07:49:58.820Z,19.43
2023-04-17T07:52:25.599Z,16.63
2023-04-17T07:54:52.238Z,16.20
2023-04-17T07:57:19.078Z,16.53
2023-04-17T07:59:46.545Z,16.90
2023-04-17T08:02:13.482Z,16.23
2023-04-17T08:04:40.488Z,14.40
2023-04-17T08:07:10.550Z,17.93
2023-04-17T08:09:37.345Z,13.83
2023-04-17T08:12:04.267Z,14.40
2023-04-17T08:14:30.974Z,15.10
2023-04-17T08:16:58.133Z,14.53
2023-04-17T08:19:24.995Z,14.43
2023-04-17T08:21:51.695Z,14.30
2023-04-17T08:24:19.968Z,13.13
2023-04-17T08:26:48.053Z,12.30
2023-04-17T08:29:15.126Z,13.70
2023-04-17T08:31:41.936Z,16.13
2023-04-17T08:34:14.493Z,14.07
2023-04-17T08:36:42.931Z,12.17
2023-04-17T08:39:12.021Z,13.70
2023-04-17T08:41:49.212Z,11.67
2023-04-17T08:44:20.597Z,11.57
2023-04-17T08:46:48.607Z,11.83
2023-04-17T08:49:15.742Z,9.40
2023-04-17T08:51:42.888Z,9.83
2023-04-17T08:54:09.686Z,10.77
2023-04-17T08:56:36.433Z,9.77
2023-04-17T08:59:04.426Z,9.33
2023-04-17T09:01:31.105Z,9.60
2023-04-17T09:03:58.196Z,11.83
2023-04-17T09:06:24.996Z,7.07
2023-04-17T09:08:59.809Z,7.23
2023-04-17T09:11:27.211Z,8.20
2023-04-17T09:13:54.343Z,7.77
2023-04-17T09:16:21.378Z,6.10
2023-04-17T09:18:49.255Z,9.10
2023-04-17T09:21:21.344Z,6.83
2023-04-17T09:23:55.208Z,7.13
2023-04-17T09:26:27.317Z,8.27
2023-04-17T09:29:08.622Z,8.53
2023-04-17T09:31:37.356Z,8.07
2023-04-17T09:34:07.711Z,7.97
2023-04-17T09:36:37.012Z,6.80
2023-04-17T09:39:06.014Z,7.53
2023-04-17T09:41:36.287Z,7.80
2023-04-17T09:44:05.355Z,7.37
2023-04-17T09:46:45.767Z,8.23
2023-04-17T09:49:39.591Z,7.67
2023-04-17T09:52:07.134Z,9.17
2023-04-17T09:54:38.295Z,7.50
2023-04-17T09:57:09.950Z,6.63
2023-04-17T09:59:41.144Z,7.40
2023-04-17T10:02:09.347Z,6.23
2023-04-17T10:04:39.328Z,9.80
2023-04-17T10:07:06.563Z,7.23
2023-04-17T10:09:33.289Z,6.90
2023-04-17T10:12:02.054Z,7.23
2023-04-17T10:14:32.592Z,6.27
2023-04-17T10:16:59.746Z,7.70
2023-04-17T10:19:32.023Z,7.53
2023-04-17T10:22:20.112Z,7.03
2023-04-17T10:24:47.907Z,5.80
2023-04-17T10:27:30.982Z,8.17
2023-04-17T10:30:05.507Z,6.90
2023-04-17T10:32:34.596Z,7.33
2023-04-17T10:35:22.191Z,6.53
2023-04-17T10:37:51.575Z,8.77
2023-04-17T10:40:27.120Z,6.57
2023-04-17T10:43:17.634Z,7.60
2023-04-17T10:46:04.786Z,8.20
2023-04-17T10:48:47.772Z,6.70
2023-04-17T10:51:23.248Z,10.87
2023-04-17T10:53:51.686Z,9.00
2023-04-17T10:56:24.202Z,9.87
2023-04-17T10:59:05.248Z,7.73
2023-04-17T11:01:36.938Z,7.70
2023-04-17T11:04:04.530Z,7.63
2023-04-17T11:06:33.114Z,6.57
2023-04-17T11:09:00.792Z,7.30
2023-04-17T11:11:40.489Z,7.60
2023-04-17T11:14:14.421Z,8.57
2023-04-17T11:16:42.798Z,8.17
2023-04-17T11:19:11.128Z,7.23
2023-04-17T11:21:45.693Z,8.00
2023-04-17T11:24:12.489Z,7.13
2023-04-17T11:26:46.171Z,8.50
2023-04-17T11:29:16.826Z,7.57
2023-04-17T11:31:47.589Z,8.40
2023-04-17T11:34:15.953Z,7.20
2023-04-17T11:36:53.941Z,9.33
2023-04-17T11:39:22.609Z,7.70
2023-04-17T11:41:51.420Z,9.37
2023-04-17T11:44:20.134Z,8.93
2023-04-17T11:46:58.460Z,8.03
2023-04-17T11:49:28.798Z,8.33
2023-04-17T11:51:57.637Z,8.37
2023-04-17T11:54:38.705Z,12.17
2023-04-17T11:57:15.184Z,11.43
2023-04-17T11:59:42.737Z,11.33
2023-04-17T12:02:10.019Z,12.43
2023-04-17T12:04:37.815Z,11.57
2023-04-17T12:07:06.311Z,10.90
2023-04-17T12:09:34.381Z,10.57
2023-04-17T12:12:04.470Z,9.40
2023-04-17T12:14:32.117Z,10.03
2023-04-17T12:16:59.316Z,10.10
2023-04-17T12:19:27.197Z,10.27
2023-04-17T12:21:54.451Z,9.80
2023-04-17T12:24:24.004Z,8.93
2023-04-17T12:26:51.603Z,7.33
2023-04-17T12:29:22.060Z,7.17
2023-04-17T12:31:56.486Z,9.97
2023-04-17T12:34:24.230Z,8.17
2023-04-17T12:36:51.608Z,5.83
2023-04-17T12:39:18.868Z,7.30
2023-04-17T12:41:45.625Z,7.13
2023-04-17T12:44:12.930Z,8.33
2023-04-17T12:46:39.743Z,9.53
2023-04-17T12:49:06.424Z,7.73
2023-04-17T12:51:37.830Z,6.57
2023-04-17T12:54:04.943Z,7.50
2023-04-17T12:56:32.124Z,9.20
2023-04-17T12:59:01.337Z,6.47
2023-04-17T13:01:29.705Z,7.77
2023-04-17T13:03:56.605Z,7.40
2023-04-17T13:06:23.572Z,10.03
2023-04-17T13:08:50.299Z,7.20
2023-04-17T13:11:16.985Z,7.57
2023-04-17T13:13:43.647Z,8.00
2023-04-17T13:16:10.522Z,8.90
2023-04-17T13:18:37.605Z,8.77
2023-04-17T13:21:04.358Z,6.20
2023-04-17T13:23:31.220Z,7.90
2023-04-17T13:25:57.885Z,7.80
2023-04-17T13:28:24.596Z,7.53
2023-04-17T13:30:52.530Z,7.70
2023-04-17T13:33:19.261Z,10.63
2023-04-17T13:35:45.933Z,8.67
2023-04-17T13:38:12.577Z,9.13
2023-04-17T13:40:40.764Z,8.77
2023-04-17T13:43:07.480Z,8.30
2023-04-17T13:45:34.176Z,7.47
2023-04-17T13:48:01.277Z,7.53
2023-04-17T13:50:28.025Z,5.83
2023-04-17T13:52:54.718Z,10.13
2023-04-17T13:55:21.400Z,6.73
2023-04-17T13:57:48.147Z,6.07
2023-04-17T14:00:15.268Z,6.17
2023-04-17T14:02:42.646Z,7.43
2023-04-17T14:05:09.867Z,5.33
2023-04-17T14:07:37.856Z,4.27
2023-04-17T14:10:04.982Z,3.67
2023-04-17T14:12:31.666Z,2.40
2023-04-17T14:14:58.442Z,2.27
2023-04-17T14:17:25.431Z,2.27
2023-04-17T14:19:52.891Z,2.23
2023-04-17T14:22:20.045Z,2.27
2023-04-17T14:24:46.715Z,5.27
2023-04-17T14:27:13.386Z,3.33
2023-04-17T14:29:40.105Z,4.70
2023-04-17T14:32:06.794Z,6.20
2023-04-17T14:34:33.453Z,2.83
2023-04-17T14:37:00.219Z,4.27
2023-04-17T14:39:28.342Z,6.40
2023-04-17T14:41:58.958Z,5.23
2023-04-17T14:44:27.332Z,2.00
2023-04-17T14:46:54.113Z,2.63
2023-04-17T14:49:20.833Z,3.40
2023-04-17T14:51:47.485Z,3.97
2023-04-17T14:54:15.553Z,6.20
2023-04-17T14:56:42.461Z,3.33
2023-04-17T14:59:09.113Z,4.37
2023-04-17T15:01:35.766Z,2.43
2023-04-17T15:04:03.734Z,3.47
2023-04-17T15:06:30.684Z,3.63
2023-04-17T15:08:57.831Z,3.13
2023-04-17T15:11:24.618Z,3.20
2023-04-17T15:13:51.518Z,5.20
2023-04-17T15:16:18.255Z,4.37
2023-04-17T15:18:44.918Z,8.27
2023-04-17T15:21:11.572Z,4.90
2023-04-17T15:23:38.297Z,2.53
2023-04-17T15:26:05.172Z,3.27
2023-04-17T15:28:33.020Z,3.57
2023-04-17T15:31:02.157Z,2.60
2023-04-17T15:33:28.904Z,2.10
2023-04-17T15:35:57.925Z,7.40
2023-04-17T15:38:25.367Z,7.27
2023-04-17T15:40:52.073Z,2.80
2023-04-17T15:43:19.099Z,6.50
2023-04-17T15:45:48.106Z,3.10
2023-04-17T15:48:15.763Z,2.50
2023-04-17T15:50:42.508Z,6.20
2023-04-17T15:53:09.757Z,2.57
2023-04-17T15:55:36.996Z,5.00
2023-04-17T15:58:03.922Z,3.47
2023-04-17T16:00:31.267Z,2.90
2023-04-17T16:02:58.067Z,2.73
2023-04-17T16:05:24.863Z,4.43
2023-04-17T16:07:51.590Z,2.30
2023-04-17T16:10:18.875Z,3.37
2023-04-17T16:12:46.235Z,3.70
2023-04-17T16:15:17.263Z,3.00
2023-04-17T16:17:45.457Z,3.23
2023-04-17T16:20:13.797Z,2.63
2023-04-17T16:22:40.790Z,3.83
2023-04-17T16:25:07.994Z,4.40
2023-04-17T16:27:34.876Z,5.03
2023-04-17T16:30:02.906Z,3.17
2023-04-17T16:32:31.533Z,3.87
2023-04-17T16:34:58.359Z,6.10
2023-04-17T16:37:25.104Z,3.60
2023-04-17T16:39:51.796Z,3.87
2023-04-17T16:42:18.455Z,2.93
2023-04-17T16:44:48.053Z,5.30
2023-04-17T16:47:15.150Z,2.57
2023-04-17T16:49:42.584Z,3.67
2023-04-17T16:52:09.462Z,4.57
2023-04-17T16:54:36.115Z,3.23
2023-04-17T16:57:02.816Z,2.80
2023-04-17T16:59:29.505Z,4.50
2023-04-17T17:01:56.236Z,4.27
2023-04-17T17:04:23.058Z,3.13
2023-04-17T17:06:49.889Z,4.03
2023-04-17T17:09:16.558Z,3.87
2023-04-17T17:11:43.228Z,5.37
2023-04-17T17:14:09.970Z,3.17
2023-04-17T17:16:36.915Z,5.90
2023-04-17T17:19:03.923Z,4.43
2023-04-17T17:21:31.074Z,3.07
2023-04-17T17:23:57.874Z,5.30
2023-04-17T17:26:24.962Z,2.93
2023-04-17T17:28:53.161Z,2.23
2023-04-17T17:31:20.428Z,3.83
2023-04-17T17:33:50.226Z,6.13
2023-04-17T17:36:17.423Z,3.90
2023-04-17T17:38:44.659Z,3.77
2023-04-17T17:41:11.388Z,5.37
2023-04-17T17:43:38.152Z,4.07
2023-04-17T17:46:05.285Z,4.07
2023-04-17T17:48:33.678Z,5.13
2023-04-17T17:51:00.340Z,6.17
2023-04-17T17:53:27.300Z,3.20
2023-04-17T17:55:55.675Z,5.63
2023-04-17T17:58:22.863Z,3.23
2023-04-17T18:00:50.328Z,3.20
2023-04-17T18:03:17.780Z,5.90
2023-04-17T18:05:46.313Z,4.20
2023-04-17T18:08:13.627Z,5.60
2023-04-17T18:10:40.352Z,7.70
2023-04-17T18:13:07.076Z,6.10
2023-04-17T18:15:34.041Z,5.53
2023-04-17T18:18:00.900Z,15.47
2023-04-17T18:20:27.729Z,15.70
2023-04-17T18:22:54.495Z,8.20
2023-04-17T18:25:21.315Z,7.57
2023-04-17T18:27:47.954Z,10.03
2023-04-17T18:30:15.273Z,6.67
2023-04-17T18:32:41.921Z,6.10
2023-04-17T18:35:08.984Z,6.77
2023-04-17T18:37:35.813Z,7.17
2023-04-17T18:40:02.635Z,7.70
2023-04-17T18:42:29.317Z,11.43
2023-04-17T18:44:56.054Z,13.40
2023-04-17T18:47:22.800Z,11.30
2023-04-17T18:49:53.033Z,12.60
2023-04-17T18:52:19.840Z,7.10
2023-04-17T18:54:46.498Z,7.93
2023-04-17T18:57:13.123Z,7.67
2023-04-17T18:59:40.981Z,10.07
2023-04-17T19:02:09.435Z,6.97
2023-04-17T19:04:36.069Z,8.80
2023-04-17T19:07:02.790Z,12.33
2023-04-17T19:09:29.427Z,12.33
2023-04-17T19:11:57.365Z,11.07
2023-04-17T19:14:24.628Z,9.13
2023-04-17T19:16:51.845Z,8.70
2023-04-17T19:19:18.498Z,9.00
2023-04-17T19:21:45.147Z,8.23
2023-04-17T19:24:11.864Z,9.97
2023-04-17T19:26:38.539Z,6.97
2023-04-17T19:29:05.459Z,7.67
2023-04-17T19:31:32.924Z,6.03
2023-04-17T19:34:00.350Z,4.10
2023-04-17T19:36:28.001Z,4.23
2023-04-17T19:38:55.694Z,2.93
2023-04-17T19:41:22.358Z,4.80
2023-04-17T19:43:51.109Z,4.83
2023-04-17T19:46:19.042Z,4.33
2023-04-17T19:48:47.089Z,6.13
2023-04-17T19:51:14.471Z,7.00
2023-04-17T19:53:42.999Z,6.77
2023-04-17T19:56:10.423Z,5.73
2023-04-17T19:58:38.153Z,7.17
2023-04-17T20:01:05.122Z,9.50
2023-04-17T20:03:32.703Z,9.13
2023-04-17T20:06:00.231Z,7.70
2023-04-17T20:08:27.080Z,9.60
2023-04-17T20:10:54.130Z,6.53
2023-04-17T20:13:21.336Z,10.67
2023-04-17T20:15:48.111Z,10.90
2023-04-17T20:18:14.926Z,11.53
2023-04-17T20:20:41.575Z,10.83
2023-04-17T20:23:08.346Z,7.60
2023-04-17T20:25:34.978Z,9.13
2023-04-17T20:28:04.717Z,9.60
2023-04-17T20:30:31.522Z,9.57
2023-04-17T20:32:58.407Z,8.97
2023-04-17T20:35:25.195Z,7.97
2023-04-17T20:37:52.416Z,8.83
2023-04-17T20:40:19.987Z,6.63
2023-04-17T20:42:47.373Z,7.63
2023-04-17T20:45:14.360Z,7.50
2023-04-17T20:47:56.000Z,6.43
2023-04-17T20:50:23.641Z,4.27
2023-04-17T20:52:50.485Z,5.70
2023-04-17T20:55:18.652Z,7.90
2023-04-17T20:57:45.920Z,5.67
2023-04-17T21:00:13.209Z,5.33
2023-04-17T21:02:40.419Z,4.47
2023-04-17T21:05:08.124Z,5.87
2023-04-17T21:07:35.415Z,4.87
2023-04-17T21:10:02.189Z,6.63
2023-04-17T21:12:29.063Z,7.03
2023-04-17T21:14:55.683Z,7.83
2023-04-17T21:17:22.395Z,5.97
2023-04-17T21:19:49.291Z,5.07
2023-04-17T21:22:16.134Z,5.67
2023-04-17T21:24:42.874Z,4.93
2023-04-17T21:27:10.319Z,7.57
2023-04-17T21:29:37.308Z,5.97
2023-04-17T21:32:04.287Z,11.10
2023-04-17T21:34:30.992Z,6.33
2023-04-17T21:37:02.078Z,4.77
2023-04-17T21:39:32.282Z,7.07
2023-04-17T21:41:59.742Z,8.07
2023-04-17T21:44:26.497Z,7.37
2023-04-17T21:46:53.272Z,4.70
2023-04-17T21:49:20.856Z,4.80
2023-04-17T21:51:47.545Z,4.73
2023-04-17T21:54:14.596Z,7.73
2023-04-17T21:56:41.575Z,7.33
2023-04-17T21:59:08.328Z,6.70
2023-04-17T22:01:35.121Z,6.27
2023-04-17T22:04:01.835Z,4.33
2023-04-17T22:06:28.521Z,5.43
2023-04-17T22:08:55.224Z,4.30
2023-04-17T22:11:22.946Z,5.67
2023-04-17T22:13:49.586Z,5.23
2023-04-17T22:16:16.337Z,6.20
2023-04-17T22:18:43.071Z,4.37
2023-04-17T22:21:09.721Z,5.00
2023-04-17T22:23:36.409Z,9.77
2023-04-17T22:26:03.192Z,7.97
2023-04-17T22:28:31.240Z,7.87
2023-04-17T22:30:58.822Z,7.47
2023-04-17T22:33:26.090Z,6.73
2023-04-17T22:35:53.055Z,7.07
2023-04-17T22:38:21.028Z,6.97
2023-04-17T22:40:48.520Z,5.53
2023-04-17T22:43:15.509Z,8.23
2023-04-17T22:45:43.158Z,6.43
2023-04-17T22:48:09.892Z,5.80
2023-04-17T22:50:37.704Z,7.47
2023-04-17T22:53:04.529Z,10.23
2023-04-17T22:55:31.229Z,4.00
2023-04-17T22:57:57.928Z,8.30
2023-04-17T23:00:25.270Z,6.67
2023-04-17T23:02:52.217Z,4.83
2023-04-17T23:05:19.008Z,5.80
2023-04-17T23:07:45.746Z,4.40
2023-04-17T23:10:12.393Z,6.60
2023-04-17T23:12:39.115Z,6.30
2023-04-17T23:15:08.136Z,6.43
2023-04-17T23:17:35.070Z,9.33
2023-04-17T23:20:01.783Z,7.43
2023-04-17T23:22:28.503Z,6.93
2023-04-17T23:24:56.650Z,7.87
2023-04-17T23:27:23.316Z,8.13
2023-04-17T23:29:49.948Z,4.87
2023-04-17T23:32:16.677Z,6.07
2023-04-17T23:34:43.503Z,5.87
2023-04-17T23:37:10.187Z,4.07
2023-04-17T23:39:36.809Z,6.83
2023-04-17T23:42:07.247Z,10.90
2023-04-17T23:44:34.562Z,5.60
2023-04-17T23:47:01.939Z,8.43
2023-04-17T23:49:28.880Z,7.30
2023-04-17T23:51:55.635Z,8.03
2023-04-17T23:54:22.321Z,8.23
2023-04-17T23:56:49.028Z,6.93
2023-04-17T23:59:15.700Z,7.17
